createdAt,value
2023-09-26T00:00:25.018Z,10.76
2023-09-26T00:01:25.282Z,10.76
2023-09-26T00:02:24.771Z,10.76
2023-09-26T00:03:24.832Z,10.75
2023-09-26T00:04:25.466Z,10.73
2023-09-26T00:05:25.297Z,10.75
2023-09-26T00:06:25.256Z,10.78
2023-09-26T00:07:24.697Z,10.75
2023-09-26T00:08:24.737Z,10.73
2023-09-26T00:09:24.691Z,10.75
2023-09-26T00:10:24.712Z,10.73
2023-09-26T00:11:24.655Z,10.73
2023-09-26T00:12:24.670Z,10.73
2023-09-26T00:13:24.705Z,10.72
2023-09-26T00:14:24.646Z,10.72
2023-09-26T00:15:24.633Z,10.70
2023-09-26T00:16:24.725Z,10.68
2023-09-26T00:17:24.614Z,10.70
2023-09-26T00:18:24.586Z,10.68
2023-09-26T00:19:24.592Z,10.70
2023-09-26T00:20:24.567Z,10.68
2023-09-26T00:21:24.580Z,10.67
2023-09-26T00:22:24.618Z,10.67
2023-09-26T00:23:24.546Z,10.68
2023-09-26T00:24:24.546Z,10.68
2023-09-26T00:25:24.604Z,10.67
2023-09-26T00:26:24.521Z,10.65
2023-09-26T00:27:24.529Z,10.65
2023-09-26T00:28:24.594Z,10.67
2023-09-26T00:29:24.469Z,10.68
2023-09-26T00:30:24.467Z,10.70
2023-09-26T00:31:24.525Z,10.70
2023-09-26T00:32:24.477Z,10.68
2023-09-26T00:33:24.452Z,10.72
2023-09-26T00:34:24.445Z,10.72
2023-09-26T00:35:24.410Z,10.70
2023-09-26T00:36:24.429Z,10.68
2023-09-26T00:37:24.590Z,10.70
2023-09-26T00:38:24.467Z,10.68
2023-09-26T00:39:24.368Z,10.70
2023-09-26T00:40:24.461Z,10.68
2023-09-26T00:41:24.346Z,10.68
2023-09-26T00:42:24.345Z,10.65
2023-09-26T00:43:24.370Z,10.64
2023-09-26T00:44:24.334Z,10.64
2023-09-26T00:45:24.323Z,10.64
2023-09-26T00:46:24.342Z,10.62
2023-09-26T00:47:24.282Z,10.60
2023-09-26T00:48:24.283Z,10.60
2023-09-26T00:49:24.289Z,10.60
2023-09-26T00:50:24.266Z,10.58
2023-09-26T00:51:24.241Z,10.57
2023-09-26T00:52:24.326Z,10.57
2023-09-26T00:53:24.240Z,10.55
2023-09-26T00:54:24.212Z,10.54
2023-09-26T00:55:24.243Z,10.54
2023-09-26T00:56:24.192Z,10.49
2023-09-26T00:57:24.204Z,10.48
2023-09-26T00:58:24.290Z,10.45
2023-09-26T00:59:24.176Z,10.46
2023-09-26T01:00:24.165Z,10.43
2023-09-26T01:01:24.227Z,10.45
2023-09-26T01:02:24.150Z,10.45
2023-09-26T01:03:24.162Z,10.43
2023-09-26T01:04:24.193Z,10.43
2023-09-26T01:05:24.091Z,10.42
2023-09-26T01:06:24.093Z,10.42
2023-09-26T01:07:24.169Z,10.41
2023-09-26T01:08:24.081Z,10.41
2023-09-26T01:09:24.049Z,10.39
2023-09-26T01:10:24.065Z,10.39
2023-09-26T01:11:24.021Z,10.39
2023-09-26T01:12:24.028Z,10.38
2023-09-26T01:13:24.063Z,10.36
2023-09-26T01:14:23.998Z,10.38
2023-09-26T01:15:23.987Z,10.35
2023-09-26T01:16:24.089Z,10.35
2023-09-26T01:17:24.009Z,10.35
2023-09-26T01:18:23.949Z,10.36
2023-09-26T01:19:24.012Z,10.38
2023-09-26T01:20:23.933Z,10.36
2023-09-26T01:21:23.958Z,10.38
2023-09-26T01:22:23.975Z,10.38
2023-09-26T01:23:23.913Z,10.35
2023-09-26T01:24:23.889Z,10.35
2023-09-26T01:25:23.960Z,10.35
2023-09-26T01:26:23.868Z,10.35
2023-09-26T01:27:24.138Z,10.34
2023-09-26T01:28:23.926Z,10.30
2023-09-26T01:29:23.844Z,10.31
2023-09-26T01:30:23.848Z,10.31
2023-09-26T01:31:23.880Z,10.27
2023-09-26T01:32:23.823Z,10.28
2023-09-26T01:33:23.835Z,10.28
2023-09-26T01:34:23.816Z,10.27
2023-09-26T01:35:23.779Z,10.28
2023-09-26T01:36:23.792Z,10.30
2023-09-26T01:37:23.837Z,10.31
2023-09-26T01:38:23.761Z,10.31
2023-09-26T01:39:23.753Z,10.34
2023-09-26T01:40:23.765Z,10.35
2023-09-26T01:41:23.715Z,10.35
2023-09-26T01:42:23.722Z,10.35
2023-09-26T01:43:23.756Z,10.35
2023-09-26T01:44:23.682Z,10.35
2023-09-26T01:45:23.669Z,10.36
2023-09-26T01:46:23.769Z,10.36
2023-09-26T01:47:23.721Z,10.38
2023-09-26T01:48:23.648Z,10.38
2023-09-26T01:49:23.711Z,10.41
2023-09-26T01:50:23.629Z,10.42
2023-09-26T01:51:23.606Z,10.43
2023-09-26T01:52:23.647Z,10.43
2023-09-26T01:53:23.619Z,10.43
2023-09-26T01:54:23.573Z,10.43
2023-09-26T01:55:23.616Z,10.42
2023-09-26T01:56:23.545Z,10.41
2023-09-26T01:57:23.551Z,10.42
2023-09-26T01:58:23.627Z,10.39
2023-09-26T01:59:23.520Z,10.41
2023-09-26T02:00:23.603Z,10.39
2023-09-26T02:01:23.572Z,10.38
2023-09-26T02:02:23.540Z,10.41
2023-09-26T02:03:24.537Z,10.42
2023-09-26T02:04:23.498Z,10.41
2023-09-26T02:05:23.465Z,10.41
2023-09-26T02:06:23.527Z,10.41
2023-09-26T02:07:23.462Z,10.39
2023-09-26T02:08:23.444Z,10.39
2023-09-26T02:09:23.429Z,10.39
2023-09-26T02:10:23.501Z,10.38
2023-09-26T02:11:23.408Z,10.35
2023-09-26T02:12:23.394Z,10.36
2023-09-26T02:13:23.470Z,10.36
2023-09-26T02:14:23.395Z,10.36
2023-09-26T02:15:23.351Z,10.35
2023-09-26T02:16:23.422Z,10.34
2023-09-26T02:17:23.335Z,10.31
2023-09-26T02:18:23.323Z,10.31
2023-09-26T02:19:23.333Z,10.31
2023-09-26T02:20:23.337Z,10.34
2023-09-26T02:21:23.298Z,10.31
2023-09-26T02:22:23.348Z,10.31
2023-09-26T02:23:23.257Z,10.34
2023-09-26T02:24:23.273Z,10.35
2023-09-26T02:25:23.298Z,10.31
2023-09-26T02:26:23.269Z,10.31
2023-09-26T02:27:23.227Z,10.30
2023-09-26T02:28:23.251Z,10.30
2023-09-26T02:29:23.220Z,10.30
2023-09-26T02:30:23.222Z,10.27
2023-09-26T02:31:23.248Z,10.27
2023-09-26T02:32:23.233Z,10.27
2023-09-26T02:33:23.190Z,10.24
2023-09-26T02:34:23.227Z,10.26
2023-09-26T02:35:23.152Z,10.26
2023-09-26T02:36:23.136Z,10.24
2023-09-26T02:37:23.163Z,10.26
2023-09-26T02:38:23.224Z,10.24
2023-09-26T02:39:23.100Z,10.24
2023-09-26T02:40:23.134Z,10.27
2023-09-26T02:41:23.087Z,10.26
2023-09-26T02:42:23.083Z,10.27
2023-09-26T02:43:23.064Z,10.26
2023-09-26T02:44:23.081Z,10.26
2023-09-26T02:45:23.040Z,10.27
2023-09-26T02:46:23.130Z,10.30
2023-09-26T02:47:23.059Z,10.28
2023-09-26T02:48:23.017Z,10.27
2023-09-26T02:49:23.126Z,10.26
2023-09-26T02:50:22.992Z,10.23
2023-09-26T02:51:22.967Z,10.23
2023-09-26T02:52:23.044Z,10.20
2023-09-26T02:53:22.988Z,10.21
2023-09-26T02:54:22.946Z,10.20
2023-09-26T02:55:22.974Z,10.21
2023-09-26T02:56:22.921Z,10.20
2023-09-26T02:57:22.916Z,10.18
2023-09-26T02:58:22.936Z,10.20
2023-09-26T02:59:22.903Z,10.20
2023-09-26T03:00:22.914Z,10.21
2023-09-26T03:01:22.962Z,10.23
2023-09-26T03:02:22.987Z,10.24
2023-09-26T03:03:22.858Z,10.23
2023-09-26T03:04:22.880Z,10.24
2023-09-26T03:05:22.849Z,10.26
2023-09-26T03:06:22.829Z,10.27
2023-09-26T03:07:22.874Z,10.30
2023-09-26T03:08:22.799Z,10.31
2023-09-26T03:09:22.780Z,10.34
2023-09-26T03:10:22.830Z,10.34
2023-09-26T03:11:22.776Z,10.30
2023-09-26T03:12:22.751Z,10.34
2023-09-26T03:13:22.792Z,10.30
2023-09-26T03:14:22.749Z,10.28
2023-09-26T03:15:22.760Z,10.27
2023-09-26T03:16:22.828Z,10.27
2023-09-26T03:17:22.702Z,10.27
2023-09-26T03:18:22.686Z,10.26
2023-09-26T03:19:22.701Z,10.26
2023-09-26T03:20:22.686Z,10.26
2023-09-26T03:21:22.670Z,10.24
2023-09-26T03:22:22.799Z,10.24
2023-09-26T03:23:22.715Z,10.24
2023-09-26T03:24:22.625Z,10.21
2023-09-26T03:25:22.686Z,10.21
2023-09-26T03:26:22.612Z,10.18
2023-09-26T03:27:22.594Z,10.17
2023-09-26T03:28:22.633Z,10.16
2023-09-26T03:29:22.580Z,10.12
2023-09-26T03:30:22.600Z,10.14
2023-09-26T03:31:22.638Z,10.10
2023-09-26T03:32:22.615Z,10.10
2023-09-26T03:33:22.529Z,10.09
2023-09-26T03:34:22.573Z,10.08
2023-09-26T03:35:22.544Z,10.08
2023-09-26T03:36:22.528Z,10.06
2023-09-26T03:37:22.530Z,10.05
2023-09-26T03:38:22.526Z,10.03
2023-09-26T03:39:22.484Z,10.05
2023-09-26T03:40:22.700Z,10.05
2023-09-26T03:41:22.466Z,10.02
2023-09-26T03:42:22.445Z,10.01
2023-09-26T03:43:22.463Z,10.02
2023-09-26T03:44:22.428Z,10.02
2023-09-26T03:45:22.414Z,10.01
2023-09-26T03:46:22.463Z,9.99
2023-09-26T03:47:22.452Z,10.01
2023-09-26T03:48:22.452Z,9.98
2023-09-26T03:49:22.383Z,9.99
2023-09-26T03:50:22.370Z,9.98
2023-09-26T03:51:22.358Z,9.98
2023-09-26T03:52:22.415Z,9.98
2023-09-26T03:53:22.332Z,9.96
2023-09-26T03:54:22.330Z,9.96
2023-09-26T03:55:22.384Z,9.94
2023-09-26T03:56:22.309Z,9.94
2023-09-26T03:57:22.289Z,9.94
2023-09-26T03:58:22.341Z,9.94
2023-09-26T03:59:22.272Z,9.93
2023-09-26T04:00:22.250Z,9.93
2023-09-26T04:01:22.337Z,9.93
2023-09-26T04:02:22.294Z,9.93
2023-09-26T04:03:23.401Z,9.90
2023-09-26T04:04:22.256Z,9.90
2023-09-26T04:05:22.192Z,9.88
2023-09-26T04:06:22.240Z,9.91
2023-09-26T04:07:22.300Z,9.90
2023-09-26T04:08:22.172Z,9.88
2023-09-26T04:09:22.191Z,9.88
2023-09-26T04:10:22.211Z,9.90
2023-09-26T04:11:22.152Z,9.88
2023-09-26T04:12:22.137Z,9.87
2023-09-26T04:13:22.144Z,9.84
2023-09-26T04:14:22.121Z,9.85
2023-09-26T04:15:22.121Z,9.84
2023-09-26T04:16:22.126Z,9.87
2023-09-26T04:17:22.076Z,9.85
2023-09-26T04:18:22.062Z,9.85
2023-09-26T04:19:22.203Z,9.84
2023-09-26T04:20:36.579Z,9.85
2023-09-26T04:21:22.060Z,9.84
2023-09-26T04:22:22.222Z,9.83
2023-09-26T04:23:22.033Z,9.83
2023-09-26T04:24:22.011Z,9.84
2023-09-26T04:25:22.107Z,9.84
2023-09-26T04:26:21.988Z,9.84
2023-09-26T04:27:22.002Z,9.81
2023-09-26T04:28:22.019Z,9.81
2023-09-26T04:29:21.945Z,9.81
2023-09-26T04:30:21.957Z,9.81
2023-09-26T04:31:22.017Z,9.80
2023-09-26T04:32:21.934Z,9.80
2023-09-26T04:33:21.910Z,9.80
2023-09-26T04:34:21.936Z,9.80
2023-09-26T04:35:21.909Z,9.78
2023-09-26T04:36:21.895Z,9.78
2023-09-26T04:37:21.960Z,9.78
2023-09-26T04:38:21.925Z,9.77
2023-09-26T04:39:21.868Z,9.77
2023-09-26T04:40:21.963Z,9.80
2023-09-26T04:41:21.860Z,9.78
2023-09-26T04:42:21.811Z,9.78
2023-09-26T04:43:21.860Z,9.75
2023-09-26T04:44:21.797Z,9.73
2023-09-26T04:45:21.812Z,9.77
2023-09-26T04:46:21.921Z,9.73
2023-09-26T04:47:21.849Z,9.72
2023-09-26T04:48:21.759Z,9.73
2023-09-26T04:49:21.780Z,9.73
2023-09-26T04:50:21.736Z,9.72
2023-09-26T04:51:21.801Z,9.72
2023-09-26T04:52:21.691Z,9.70
2023-09-26T04:53:21.709Z,9.70
2023-09-26T04:54:21.698Z,9.69
2023-09-26T04:55:21.765Z,9.70
2023-09-26T04:56:21.702Z,9.69
2023-09-26T04:57:21.612Z,9.67
2023-09-26T04:58:21.737Z,9.69
2023-09-26T04:59:21.659Z,9.69
2023-09-26T05:00:21.616Z,9.66
2023-09-26T05:01:21.654Z,9.70
2023-09-26T05:02:21.583Z,9.67
2023-09-26T05:03:21.655Z,9.70
2023-09-26T05:04:21.629Z,9.73
2023-09-26T05:05:21.529Z,9.73
2023-09-26T05:06:21.511Z,9.75
2023-09-26T05:07:21.550Z,9.75
2023-09-26T05:08:21.489Z,9.78
2023-09-26T05:09:21.481Z,9.81
2023-09-26T05:10:21.523Z,9.85
2023-09-26T05:11:21.471Z,9.84
2023-09-26T05:12:21.556Z,9.88
2023-09-26T05:13:21.476Z,9.88
2023-09-26T05:14:21.428Z,9.90
2023-09-26T05:15:21.428Z,9.93
2023-09-26T05:16:21.557Z,9.94
2023-09-26T05:17:22.145Z,9.98
2023-09-26T05:18:21.386Z,10.01
2023-09-26T05:19:21.412Z,10.02
2023-09-26T05:20:21.383Z,10.03
2023-09-26T05:21:21.360Z,10.05
2023-09-26T05:22:21.468Z,10.05
2023-09-26T05:23:21.338Z,10.08
2023-09-26T05:24:21.325Z,10.08
2023-09-26T05:25:21.382Z,10.08
2023-09-26T05:26:21.321Z,10.09
2023-09-26T05:27:21.417Z,10.12
2023-09-26T05:28:21.326Z,10.12
2023-09-26T05:29:21.279Z,10.10
2023-09-26T05:30:21.266Z,10.12
2023-09-26T05:31:21.371Z,10.14
2023-09-26T05:32:21.234Z,10.16
2023-09-26T05:33:21.274Z,10.16
2023-09-26T05:34:21.283Z,10.17
2023-09-26T05:35:21.244Z,10.21
2023-09-26T05:36:21.210Z,10.28
2023-09-26T05:37:21.247Z,10.35
2023-09-26T05:38:21.197Z,10.48
2023-09-26T05:39:21.208Z,10.57
2023-09-26T05:40:21.227Z,10.60
2023-09-26T05:41:21.312Z,10.64
2023-09-26T05:42:21.147Z,10.70
2023-09-26T05:43:21.234Z,10.75
2023-09-26T05:44:21.227Z,10.78
2023-09-26T05:45:21.098Z,10.82
2023-09-26T05:46:21.274Z,10.83
2023-09-26T05:47:22.653Z,10.86
2023-09-26T05:48:21.151Z,10.90
2023-09-26T05:49:21.116Z,10.95
2023-09-26T05:50:21.060Z,11.01
2023-09-26T05:51:21.055Z,11.09
2023-09-26T05:52:21.150Z,11.15
2023-09-26T05:53:21.029Z,11.19
2023-09-26T05:54:31.329Z,11.22
2023-09-26T05:55:21.100Z,11.27
2023-09-26T05:56:21.054Z,11.27
2023-09-26T05:57:20.988Z,11.27
2023-09-26T05:58:21.036Z,11.28
2023-09-26T05:59:20.975Z,11.31
2023-09-26T06:00:21.068Z,11.34
2023-09-26T06:01:21.008Z,11.41
2023-09-26T06:02:21.101Z,11.45
2023-09-26T06:03:20.988Z,11.48
2023-09-26T06:04:20.998Z,11.54
2023-09-26T06:05:21.058Z,11.59
2023-09-26T06:06:20.913Z,11.61
2023-09-26T06:07:20.936Z,11.62
2023-09-26T06:08:20.878Z,11.66
2023-09-26T06:09:20.869Z,11.69
2023-09-26T06:10:20.875Z,11.71
2023-09-26T06:11:20.840Z,11.73
2023-09-26T06:12:20.824Z,11.79
2023-09-26T06:13:20.861Z,11.84
2023-09-26T06:14:20.790Z,11.85
2023-09-26T06:15:20.828Z,11.88
2023-09-26T06:16:20.905Z,11.89
2023-09-26T06:17:20.831Z,11.91
2023-09-26T06:18:20.833Z,11.95
2023-09-26T06:19:20.818Z,11.96
2023-09-26T06:20:20.774Z,11.97
2023-09-26T06:21:20.767Z,12.00
2023-09-26T06:22:20.768Z,12.03
2023-09-26T06:23:20.785Z,12.04
2023-09-26T06:24:20.707Z,12.07
2023-09-26T06:25:21.392Z,12.08
2023-09-26T06:26:20.793Z,12.11
2023-09-26T06:27:20.695Z,12.13
2023-09-26T06:28:20.730Z,12.14
2023-09-26T06:29:20.648Z,12.17
2023-09-26T06:30:20.662Z,12.18
2023-09-26T06:31:20.737Z,12.18
2023-09-26T06:32:20.676Z,12.22
2023-09-26T06:33:20.768Z,12.25
2023-09-26T06:34:20.585Z,12.23
2023-09-26T06:35:20.576Z,12.28
2023-09-26T06:36:20.575Z,12.29
2023-09-26T06:37:20.842Z,12.32
2023-09-26T06:38:20.547Z,12.35
2023-09-26T06:39:20.580Z,12.40
2023-09-26T06:40:20.592Z,12.43
2023-09-26T06:41:20.547Z,12.47
2023-09-26T06:42:20.657Z,12.53
2023-09-26T06:43:20.580Z,12.59
2023-09-26T06:44:20.487Z,12.63
2023-09-26T06:45:20.472Z,12.69
2023-09-26T06:46:20.545Z,12.72
2023-09-26T06:47:20.512Z,12.79
2023-09-26T06:48:20.474Z,12.83
2023-09-26T06:49:20.625Z,12.88
2023-09-26T06:50:20.411Z,12.96
2023-09-26T06:51:20.417Z,13.04
2023-09-26T06:52:20.398Z,13.11
2023-09-26T06:53:20.416Z,13.19
2023-09-26T06:54:20.379Z,13.26
2023-09-26T06:55:20.426Z,13.36
2023-09-26T06:56:20.351Z,13.45
2023-09-26T06:57:20.347Z,13.54
2023-09-26T06:58:20.434Z,13.64
2023-09-26T06:59:20.334Z,13.73
2023-09-26T07:00:20.372Z,13.85
2023-09-26T07:01:20.366Z,13.97
2023-09-26T07:02:20.336Z,14.05
2023-09-26T07:03:21.168Z,14.13
2023-09-26T07:04:20.358Z,14.21
2023-09-26T07:05:20.275Z,14.27
2023-09-26T07:06:20.270Z,14.38
2023-09-26T07:07:20.301Z,14.49
2023-09-26T07:08:20.382Z,14.56
2023-09-26T07:09:20.237Z,14.67
2023-09-26T07:10:20.248Z,14.74
2023-09-26T07:11:20.262Z,14.85
2023-09-26T07:12:20.311Z,14.92
2023-09-26T07:13:44.383Z,14.97
2023-09-26T07:14:20.311Z,15.04
2023-09-26T07:15:20.178Z,15.12
2023-09-26T07:16:20.244Z,15.20
2023-09-26T07:17:20.235Z,15.30
2023-09-26T07:18:20.200Z,15.38
2023-09-26T07:19:20.161Z,15.41
2023-09-26T07:20:20.127Z,15.54
2023-09-26T07:21:20.089Z,15.65
2023-09-26T07:22:20.106Z,15.68
2023-09-26T07:23:20.098Z,15.73
2023-09-26T07:24:21.628Z,15.69
2023-09-26T07:25:20.098Z,15.68
2023-09-26T07:26:20.047Z,15.70
2023-09-26T07:27:20.052Z,15.76
2023-09-26T07:28:20.036Z,15.80
2023-09-26T07:29:20.121Z,15.83
2023-09-26T07:30:19.998Z,15.83
2023-09-26T07:31:20.216Z,15.87
2023-09-26T07:32:19.976Z,15.91
2023-09-26T07:33:19.970Z,15.96
2023-09-26T07:34:19.986Z,16.03
2023-09-26T07:35:20.003Z,16.05
2023-09-26T07:36:19.933Z,16.08
2023-09-26T07:37:19.944Z,16.08
2023-09-26T07:38:19.909Z,16.08
2023-09-26T07:39:19.977Z,16.13
2023-09-26T07:40:20.027Z,16.16
2023-09-26T07:41:19.923Z,16.21
2023-09-26T07:42:19.882Z,16.26
2023-09-26T07:43:19.943Z,16.32
2023-09-26T07:44:19.870Z,16.39
2023-09-26T07:45:19.830Z,16.44
2023-09-26T07:46:19.924Z,16.46
2023-09-26T07:47:19.985Z,16.46
2023-09-26T07:48:19.799Z,16.54
2023-09-26T07:49:19.823Z,16.57
2023-09-26T07:50:19.808Z,16.62
2023-09-26T07:51:19.802Z,16.57
2023-09-26T07:52:19.923Z,16.58
2023-09-26T07:53:19.840Z,16.67
2023-09-26T07:54:19.754Z,16.72
2023-09-26T07:55:19.767Z,16.77
2023-09-26T07:56:19.720Z,16.87
2023-09-26T07:57:19.723Z,16.91
2023-09-26T07:58:19.719Z,16.95
2023-09-26T07:59:19.687Z,17.02
2023-09-26T08:00:19.695Z,17.07
2023-09-26T08:01:19.725Z,17.13
2023-09-26T08:02:19.703Z,17.10
2023-09-26T08:03:19.703Z,17.12
2023-09-26T08:04:19.840Z,17.14
2023-09-26T08:05:19.655Z,17.19
2023-09-26T08:06:19.641Z,17.19
2023-09-26T08:07:19.741Z,17.20
2023-09-26T08:08:19.621Z,17.20
2023-09-26T08:09:19.633Z,17.28
2023-09-26T08:10:19.709Z,17.27
2023-09-26T08:11:19.565Z,17.28
2023-09-26T08:12:19.562Z,17.34
2023-09-26T08:13:19.542Z,17.38
2023-09-26T08:14:19.544Z,17.45
2023-09-26T08:15:19.540Z,17.43
2023-09-26T08:16:19.621Z,17.45
2023-09-26T08:17:19.527Z,17.47
2023-09-26T08:18:19.517Z,17.52
2023-09-26T08:19:19.537Z,17.63
2023-09-26T08:20:19.492Z,17.73
2023-09-26T08:21:19.457Z,17.83
2023-09-26T08:22:19.500Z,17.84
2023-09-26T08:23:19.433Z,17.91
2023-09-26T08:24:19.438Z,17.99
2023-09-26T08:25:19.479Z,18.01
2023-09-26T08:26:19.433Z,18.03
2023-09-26T08:27:19.394Z,18.12
2023-09-26T08:28:19.393Z,18.20
2023-09-26T08:29:19.376Z,18.24
2023-09-26T08:30:19.373Z,18.24
2023-09-26T08:31:19.641Z,18.30
2023-09-26T08:32:19.661Z,18.39
2023-09-26T08:33:19.382Z,18.43
2023-09-26T08:34:19.376Z,18.48
2023-09-26T08:35:19.656Z,18.52
2023-09-26T08:36:19.325Z,18.58
2023-09-26T08:37:19.320Z,18.63
2023-09-26T08:38:19.309Z,18.71
2023-09-26T08:39:19.266Z,18.78
2023-09-26T08:40:19.283Z,18.76
2023-09-26T08:41:19.485Z,18.81
2023-09-26T08:42:19.252Z,18.81
2023-09-26T08:43:19.287Z,18.86
2023-09-26T08:44:19.335Z,18.93
2023-09-26T08:45:19.231Z,18.91
2023-09-26T08:46:19.261Z,18.89
2023-09-26T08:47:19.326Z,18.96
2023-09-26T08:48:19.207Z,18.94
2023-09-26T08:49:19.332Z,18.98
2023-09-26T08:50:19.217Z,19.00
2023-09-26T08:51:19.196Z,19.01
2023-09-26T08:52:19.166Z,19.07
2023-09-26T08:53:19.164Z,19.05
2023-09-26T08:54:19.138Z,18.96
2023-09-26T08:55:19.133Z,18.78
2023-09-26T08:56:19.100Z,18.81
2023-09-26T08:57:19.086Z,18.79
2023-09-26T08:58:19.113Z,18.75
2023-09-26T08:59:19.186Z,18.78
2023-09-26T09:00:19.058Z,18.86
2023-09-26T09:01:19.120Z,18.97
2023-09-26T09:02:19.067Z,19.07
2023-09-26T09:03:19.068Z,19.12
2023-09-26T09:04:19.143Z,19.15
2023-09-26T09:05:19.003Z,19.15
2023-09-26T09:06:19.019Z,19.22
2023-09-26T09:07:19.007Z,19.26
2023-09-26T09:08:18.978Z,19.35
2023-09-26T09:09:19.000Z,19.34
2023-09-26T09:10:19.005Z,19.31
2023-09-26T09:11:18.947Z,19.35
2023-09-26T09:12:18.939Z,19.35
2023-09-26T09:13:18.988Z,19.39
2023-09-26T09:14:18.929Z,19.49
2023-09-26T09:15:18.920Z,19.57
2023-09-26T09:16:19.083Z,19.57
2023-09-26T09:17:18.948Z,19.54
2023-09-26T09:18:18.889Z,19.56
2023-09-26T09:19:18.933Z,19.63
2023-09-26T09:20:18.889Z,19.67
2023-09-26T09:21:18.833Z,19.72
2023-09-26T09:22:18.927Z,19.72
2023-09-26T09:23:18.834Z,19.60
2023-09-26T09:24:18.832Z,19.57
2023-09-26T09:25:18.835Z,19.60
2023-09-26T09:26:18.805Z,19.63
2023-09-26T09:27:18.770Z,19.63
2023-09-26T09:28:18.822Z,19.74
2023-09-26T09:29:18.814Z,19.81
2023-09-26T09:30:18.741Z,19.89
2023-09-26T09:31:18.848Z,19.89
2023-09-26T09:32:18.741Z,19.90
2023-09-26T09:33:18.740Z,19.93
2023-09-26T09:34:18.714Z,20.07
2023-09-26T09:35:18.718Z,20.15
2023-09-26T09:36:18.704Z,20.25
2023-09-26T09:37:18.715Z,20.36
2023-09-26T09:38:18.696Z,20.42
2023-09-26T09:39:18.661Z,20.52
2023-09-26T09:40:18.695Z,20.61
2023-09-26T09:41:18.635Z,20.75
2023-09-26T09:42:18.638Z,20.83
2023-09-26T09:43:18.669Z,21.00
2023-09-26T09:44:18.665Z,21.14
2023-09-26T09:45:18.662Z,21.44
2023-09-26T09:46:18.772Z,21.71
2023-09-26T09:47:18.653Z,22.00
2023-09-26T09:48:18.613Z,22.38
2023-09-26T09:49:18.705Z,22.62
2023-09-26T09:50:18.697Z,22.96
2023-09-26T09:51:18.575Z,23.34
2023-09-26T09:52:18.573Z,23.69
2023-09-26T09:53:18.509Z,24.11
2023-09-26T09:54:18.607Z,24.23
2023-09-26T09:55:18.650Z,24.37
2023-09-26T09:56:18.481Z,24.18
2023-09-26T09:57:18.600Z,24.16
2023-09-26T09:58:18.537Z,24.25
2023-09-26T09:59:18.626Z,24.22
2023-09-26T10:00:18.451Z,24.33
2023-09-26T10:01:18.526Z,24.65
2023-09-26T10:02:18.535Z,24.97
2023-09-26T10:03:18.468Z,24.81
2023-09-26T10:04:18.455Z,24.86
2023-09-26T10:05:18.395Z,25.18
2023-09-26T10:06:18.389Z,25.40
2023-09-26T10:07:18.358Z,25.34
2023-09-26T10:08:18.343Z,25.53
2023-09-26T10:09:18.341Z,25.56
2023-09-26T10:10:18.401Z,25.63
2023-09-26T10:11:18.454Z,26.01
2023-09-26T10:12:18.308Z,26.27
2023-09-26T10:14:18.290Z,26.41
2023-09-26T10:15:18.347Z,26.31
2023-09-26T10:16:18.326Z,26.21
2023-09-26T10:17:18.365Z,26.15
2023-09-26T10:18:18.248Z,26.43
2023-09-26T10:19:18.271Z,26.68
2023-09-26T10:20:44.693Z,26.63
2023-09-26T10:21:18.248Z,26.85
2023-09-26T10:22:18.268Z,27.13
2023-09-26T10:23:18.205Z,27.50
2023-09-26T10:24:18.181Z,27.73
2023-09-26T10:25:18.245Z,27.90
2023-09-26T10:26:18.164Z,27.98
2023-09-26T10:27:27.794Z,28.05
2023-09-26T10:28:18.250Z,28.24
2023-09-26T10:29:18.155Z,28.40
2023-09-26T10:30:18.130Z,28.27
2023-09-26T10:31:18.191Z,28.38
2023-09-26T10:32:18.109Z,28.32
2023-09-26T10:33:36.621Z,28.43
2023-09-26T10:34:18.132Z,28.22
2023-09-26T11:15:19.703Z,26.95
2023-09-26T11:15:25.472Z,28.00
2023-09-26T11:16:25.462Z,27.70
2023-09-26T11:17:25.615Z,27.38
2023-09-26T11:18:25.631Z,26.85
2023-09-26T11:19:25.508Z,26.26
2023-09-26T11:20:25.455Z,25.85
2023-09-26T11:21:30.215Z,25.58
2023-09-26T11:22:25.449Z,25.38
2023-09-26T11:23:25.381Z,25.26
2023-09-26T11:24:25.394Z,25.08
2023-09-26T11:25:25.484Z,24.93
2023-09-26T11:26:25.399Z,24.45
2023-09-26T11:27:25.483Z,24.26
2023-09-26T11:28:25.385Z,24.22
2023-09-26T11:29:25.330Z,24.16
2023-09-26T11:30:25.356Z,24.08
2023-09-26T11:31:25.574Z,24.03
2023-09-26T11:32:25.423Z,23.85
2023-09-26T11:33:25.461Z,23.76
2023-09-26T11:34:25.412Z,23.76
2023-09-26T11:35:25.295Z,23.81
2023-09-26T11:36:25.276Z,23.86
2023-09-26T11:37:25.574Z,23.88
2023-09-26T11:38:25.247Z,23.81
2023-09-26T11:39:25.224Z,23.78
2023-09-26T11:40:25.573Z,23.70
2023-09-26T11:41:35.524Z,23.66
2023-09-26T11:42:25.324Z,23.67
2023-09-26T11:43:25.190Z,23.69
2023-09-26T11:44:25.184Z,23.67
2023-09-26T11:45:25.219Z,23.76
2023-09-26T11:46:25.204Z,23.81
2023-09-26T11:47:25.226Z,23.92
2023-09-26T11:48:25.161Z,24.03
2023-09-26T11:49:25.131Z,23.97
2023-09-26T11:50:25.145Z,24.01
2023-09-26T11:51:25.118Z,23.96
2023-09-26T11:52:25.130Z,23.94
2023-09-26T11:53:25.091Z,23.91
2023-09-26T11:54:25.085Z,23.88
2023-09-26T11:55:25.093Z,23.89
2023-09-26T11:56:25.097Z,23.91
2023-09-26T11:57:25.029Z,23.86
2023-09-26T11:58:25.102Z,23.74
2023-09-26T11:59:25.175Z,23.74
2023-09-26T12:00:25.053Z,23.63
2023-09-26T12:01:25.034Z,23.73
2023-09-26T12:02:25.102Z,23.86
2023-09-26T12:03:25.023Z,23.92
2023-09-26T12:04:25.006Z,23.97
2023-09-26T12:05:25.030Z,24.06
2023-09-26T12:06:24.966Z,24.13
2023-09-26T12:07:24.945Z,24.19
2023-09-26T12:08:24.938Z,24.28
2023-09-26T12:09:25.058Z,24.23
2023-09-26T12:10:24.921Z,24.34
2023-09-26T12:11:24.927Z,24.41
2023-09-26T12:12:24.902Z,24.59
2023-09-26T12:13:24.899Z,24.65
2023-09-26T12:14:24.877Z,24.68
2023-09-26T12:15:24.912Z,24.62
2023-09-26T12:16:24.956Z,24.60
2023-09-26T12:17:25.028Z,24.59
2023-09-26T12:18:24.920Z,24.59
2023-09-26T12:19:24.839Z,24.76
2023-09-26T12:20:24.833Z,24.91
2023-09-26T12:21:24.801Z,25.36
2023-09-26T12:22:24.835Z,25.56
2023-09-26T12:23:25.079Z,25.75
2023-09-26T12:24:24.788Z,25.82
2023-09-26T12:25:24.824Z,26.08
2023-09-26T12:26:24.774Z,26.53
2023-09-26T12:27:24.753Z,27.45
2023-09-26T12:28:24.770Z,27.93
2023-09-26T12:29:24.741Z,28.38
2023-09-26T12:30:24.723Z,28.72
2023-09-26T12:31:25.041Z,28.96
2023-09-26T12:32:24.811Z,29.37
2023-09-26T12:33:24.814Z,30.02
2023-09-26T12:34:24.691Z,30.26
2023-09-26T12:35:24.688Z,30.33
2023-09-26T12:36:25.000Z,30.60
2023-09-26T12:37:24.671Z,31.12
2023-09-26T12:38:24.643Z,31.49
2023-09-26T12:39:24.630Z,31.20
2023-09-26T12:40:24.623Z,30.96
2023-09-26T12:41:24.609Z,31.07
2023-09-26T12:42:24.618Z,31.19
2023-09-26T12:43:24.608Z,31.44
2023-09-26T12:44:24.620Z,31.59
2023-09-26T12:45:24.556Z,31.78
2023-09-26T12:46:24.589Z,32.05
2023-09-26T12:47:24.623Z,32.09
2023-09-26T12:48:24.561Z,32.31
2023-09-26T12:49:24.579Z,32.39
2023-09-26T12:50:24.524Z,32.11
2023-09-26T12:51:24.674Z,32.24
2023-09-26T12:52:24.542Z,32.31
2023-09-26T12:53:24.492Z,32.33
2023-09-26T12:54:24.497Z,32.64
2023-09-26T12:55:24.494Z,32.80
2023-09-26T12:56:24.486Z,32.51
2023-09-26T12:57:24.495Z,32.21
2023-09-26T12:58:26.874Z,32.19
2023-09-26T12:59:24.450Z,31.78
2023-09-26T13:00:24.502Z,31.39
2023-09-26T13:01:24.629Z,31.30
2023-09-26T13:02:24.600Z,31.11
2023-09-26T13:03:24.524Z,31.20
2023-09-26T13:04:24.523Z,30.58
2023-09-26T13:05:24.415Z,30.48
2023-09-26T13:06:24.380Z,30.43
2023-09-26T13:07:24.371Z,30.14
2023-09-26T13:08:24.388Z,29.74
2023-09-26T13:09:24.355Z,29.40
2023-09-26T13:10:24.372Z,29.19
2023-09-26T13:11:24.418Z,28.94
2023-09-26T13:12:24.416Z,28.50
2023-09-26T13:13:24.320Z,27.61
2023-09-26T13:14:24.362Z,26.85
2023-09-26T13:15:24.345Z,26.11
2023-09-26T13:16:24.427Z,25.81
2023-09-26T13:17:24.289Z,25.64
2023-09-26T13:18:24.281Z,25.74
2023-09-26T13:19:24.328Z,25.81
2023-09-26T13:20:24.280Z,25.85
2023-09-26T13:21:24.266Z,25.90
2023-09-26T13:22:24.291Z,25.75
2023-09-26T13:23:24.249Z,25.68
2023-09-26T13:24:24.336Z,25.70
2023-09-26T13:25:24.226Z,25.81
2023-09-26T13:26:24.246Z,25.78
2023-09-26T13:27:24.203Z,25.66
2023-09-26T13:28:24.206Z,25.66
2023-09-26T13:29:24.208Z,25.82
2023-09-26T13:30:24.180Z,25.73
2023-09-26T13:31:24.175Z,25.70
2023-09-26T13:32:24.403Z,25.61
2023-09-26T13:33:24.290Z,25.55
2023-09-26T13:34:24.138Z,25.61
2023-09-26T13:35:24.153Z,25.61